首页
METAR-TAF:

METAR-TAF

机场 :

布罗肯希尔, 澳大利亚

纬度: 32-00-06S, 经度: 141-28-18E, 海拔: 292米

当前天气观测

该预报发布于1小时和21分钟前的00:00 UTC
风速9节,风向西
温度 14°C
湿度 55%
气压 1018 hPa
能见度10公里或以上

METAR: YBHI 310000Z AUTO 27009KT 9999 // NCD 14/05 Q1018

时间: 10:51 (01:21 UTC)


TAF: 丢失

超过4000个机场的气象观测和天气预报(METAR&TAF报告)。

可查询的气象台以黄色和红色小点在地图上表示。

将鼠标移到小点上方,可查看气象台名称。

然后点击查看天气观测和预报。

如需切换地图:点击带黑十字的绿色按钮放大地图;点击带横线的绿色按钮缩小地图;或者点击绿色箭头查看邻近地区的地图。


METAR-TAF: